Time;durP1;ratioP1;P1;durP2;ratioP2;P2;SDS_P1;SDS_P2;PMS_P1;PMS_P2;Temp;Humidity;BMP_temperature;BMP_pressure;BME280_temperature;BME280_humidity;BME280_pressure;Samples;Min_cycle;Max_cycle;Signal;HPM_P1;HPM_P2
2022/12/29 00:02:24;;;;;;;;;;;;;;;;;;6215327;23;19912;-77
2022/12/29 00:04:50;;;;;;;;;;;;;;;;;;6242438;23;19958;-77
2022/12/29 00:07:16;;;;;;;;;;;;;;;;;;6242119;23;19949;-76
2022/12/29 00:09:41;;;;;;;;;;;;;;;;;;6215208;23;19911;-76
2022/12/29 00:12:07;;;;;;;;;;;;;;;;;;6241972;23;19912;-77
2022/12/29 00:17:17;;;;;;;;;;;;;;;;;;6241818;23;20352;-76
2022/12/29 00:36:24;;;;;;;;;;;;;;;;;;6231431;23;19912;-75
2022/12/29 00:44:19;;;;;;;;;;;;;;;;;;6258243;23;19912;-76
2022/12/29 00:46:44;;;;;;;;;;;;;;;;;;6250563;23;19918;-76
2022/12/29 00:51:54;;;;;;;;;;;;;;;;;;6215236;23;19994;-75
2022/12/29 00:54:20;;;;;;;;;;;;;;;;;;6242390;23;20415;-75
2022/12/29 00:56:46;;;;;;;;;;;;;;;;;;6215441;23;19912;-76
2022/12/29 00:59:11;;;;;;;;;;;;;;;;;;6241694;23;19989;-76
2022/12/29 01:01:37;;;;;;;;;;;;;;;;;;6215329;23;19945;-75
2022/12/29 01:04:03;;;;;;;;;;;;;;;;;;6215465;23;19918;-75
2022/12/29 01:06:28;;;;;;;;;;;;;;;;;;6242128;23;19919;-75
2022/12/29 01:11:39;;;;;;;;;;;;;;;;;;6241774;23;19912;-76
2022/12/29 01:14:05;;;;;;;;;;;;;;;;;;6241606;23;19965;-75
2022/12/29 01:16:31;;;;;;;;;;;;;;;;;;6241538;23;20688;-75
2022/12/29 01:18:56;;;;;;;;;;;;;;;;;;6189779;23;19912;-75
2022/12/29 01:21:22;;;;;;;;;;;;;;;;;;6241501;23;19911;-73
2022/12/29 01:23:49;;;;;;;;;;;;;;;;;;6215077;23;19912;-76
2022/12/29 01:26:15;;;;;;;;;;;;;;;;;;6214377;23;19934;-76
2022/12/29 01:28:41;;;;;;;;;;;;;;;;;;6241781;23;20519;-76
2022/12/29 01:31:07;;;;;;;;;;;;;;;;;;6214671;23;19915;-75
2022/12/29 01:33:33;;;;;;;;;;;;;;;;;;6214822;23;19972;-75
2022/12/29 01:35:58;;;;;;;;;;;;;;;;;;6241627;23;19912;-74
2022/12/29 01:38:24;;;;;;;;;;;;;;;;;;6241394;23;19919;-75
2022/12/29 01:40:50;;;;;;;;;;;;;;;;;;6189513;23;19995;-75
2022/12/29 01:43:15;;;;;;;;;;;;;;;;;;6214533;23;20256;-75
2022/12/29 01:45:41;;;;;;;;;;;;;;;;;;6241610;23;19955;-75
2022/12/29 01:48:07;;;;;;;;;;;;;;;;;;6242218;23;19912;-75
2022/12/29 01:50:32;;;;;;;;;;;;;;;;;;6241940;23;20344;-75
2022/12/29 01:52:58;;;;;;;;;;;;;;;;;;6241504;23;19950;-75
2022/12/29 01:55:24;;;;;;;;;;;;;;;;;;6241554;23;19918;-76
2022/12/29 01:57:50;;;;;;;;;;;;;;;;;;6215043;23;20299;-76
2022/12/29 02:00:15;;;;;;;;;;;;;;;;;;6241741;23;19973;-75
2022/12/29 02:02:41;;;;;;;;;;;;;;;;;;6214635;23;19916;-76
2022/12/29 02:05:07;;;;;;;;;;;;;;;;;;6241306;23;19926;-75
2022/12/29 02:07:33;;;;;;;;;;;;;;;;;;6242692;23;20372;-74
2022/12/29 02:09:59;;;;;;;;;;;;;;;;;;6243935;23;19911;-75
2022/12/29 02:12:24;;;;;;;;;;;;;;;;;;6245404;23;19939;-75
2022/12/29 02:14:50;;;;;;;;;;;;;;;;;;6242122;23;19916;-75
2022/12/29 02:17:16;;;;;;;;;;;;;;;;;;6241026;23;20001;-76
2022/12/29 02:19:41;;;;;;;;;;;;;;;;;;6214509;23;19942;-74
2022/12/29 02:22:07;;;;;;;;;;;;;;;;;;6213954;23;19915;-74
2022/12/29 02:24:33;;;;;;;;;;;;;;;;;;6241499;23;20348;-76
2022/12/29 02:26:59;;;;;;;;;;;;;;;;;;6214566;23;19912;-76
2022/12/29 02:29:24;;;;;;;;;;;;;;;;;;6241279;23;19930;-76
2022/12/29 02:31:50;;;;;;;;;;;;;;;;;;6189570;23;20332;-77
2022/12/29 02:34:16;;;;;;;;;;;;;;;;;;6189358;23;19919;-76
2022/12/29 02:36:41;;;;;;;;;;;;;;;;;;6214166;23;19912;-75
2022/12/29 02:39:07;;;;;;;;;;;;;;;;;;6240691;23;19911;-75
2022/12/29 02:41:33;;;;;;;;;;;;;;;;;;6240990;23;19915;-75
2022/12/29 02:43:58;;;;;;;;;;;;;;;;;;6213862;23;20348;-75
2022/12/29 02:46:27;;;;;;;;;;;;;;;;;;6240506;23;19920;-76
2022/12/29 02:48:53;;;;;;;;;;;;;;;;;;6214315;23;19912;-76
2022/12/29 02:51:19;;;;;;;;;;;;;;;;;;6213881;23;20225;-76
2022/12/29 02:56:29;;;;;;;;;;;;;;;;;;6214355;23;19911;-76
2022/12/29 02:58:55;;;;;;;;;;;;;;;;;;6245706;23;19963;-74
2022/12/29 03:01:20;;;;;;;;;;;;;;;;;;6193379;23;19931;-75
2022/12/29 03:03:46;;;;;;;;;;;;;;;;;;6242910;23;19990;-76
2022/12/29 03:06:13;;;;;;;;;;;;;;;;;;6240643;23;20010;-76
2022/12/29 03:08:39;;;;;;;;;;;;;;;;;;6214141;23;19935;-75
2022/12/29 03:11:05;;;;;;;;;;;;;;;;;;6213145;23;20394;-75
2022/12/29 03:16:16;;;;;;;;;;;;;;;;;;6213635;23;19964;-75
2022/12/29 03:18:41;;;;;;;;;;;;;;;;;;6189025;23;20378;-75
2022/12/29 03:21:07;;;;;;;;;;;;;;;;;;6212716;23;19918;-75
2022/12/29 03:23:34;;;;;;;;;;;;;;;;;;6213531;23;19915;-74
2022/12/29 03:26:00;;;;;;;;;;;;;;;;;;6213048;23;19977;-75
2022/12/29 03:28:26;;;;;;;;;;;;;;;;;;6239747;23;19919;-74
2022/12/29 03:30:51;;;;;;;;;;;;;;;;;;6240008;23;20337;-75
2022/12/29 03:33:19;;;;;;;;;;;;;;;;;;6215089;23;20345;-75
2022/12/29 03:35:44;;;;;;;;;;;;;;;;;;6190994;23;20054;-75
2022/12/29 03:38:13;;;;;;;;;;;;;;;;;;6215455;23;19912;-76
2022/12/29 03:40:39;;;;;;;;;;;;;;;;;;6215445;23;20337;-75
2022/12/29 03:43:04;;;;;;;;;;;;;;;;;;6241662;23;19918;-75
2022/12/29 03:45:32;;;;;;;;;;;;;;;;;;6190131;23;19926;-76
2022/12/29 03:47:57;;;;;;;;;;;;;;;;;;6242213;23;20010;-76
2022/12/29 03:50:23;;;;;;;;;;;;;;;;;;6215228;23;19911;-76
2022/12/29 03:52:49;;;;;;;;;;;;;;;;;;6242371;23;19951;-74
2022/12/29 03:55:14;;;;;;;;;;;;;;;;;;6215602;23;19911;-75
2022/12/29 03:57:40;;;;;;;;;;;;;;;;;;6242498;23;19912;-76
2022/12/29 04:00:09;;;;;;;;;;;;;;;;;;6215568;23;19911;-74
2022/12/29 04:02:40;;;;;;;;;;;;;;;;;;6214537;23;19918;-75
2022/12/29 04:05:06;;;;;;;;;;;;;;;;;;6215141;23;19927;-76
2022/12/29 04:07:32;;;;;;;;;;;;;;;;;;6214955;23;19919;-78
2022/12/29 04:09:58;;;;;;;;;;;;;;;;;;6215286;23;19911;-75
2022/12/29 04:12:26;;;;;;;;;;;;;;;;;;6215093;23;19911;-75
2022/12/29 04:14:51;;;;;;;;;;;;;;;;;;6214903;23;19965;-75
2022/12/29 04:17:17;;;;;;;;;;;;;;;;;;6214437;23;20249;-76
2022/12/29 04:19:43;;;;;;;;;;;;;;;;;;6213854;23;19994;-75
2022/12/29 04:22:08;;;;;;;;;;;;;;;;;;6215170;23;19911;-75
2022/12/29 04:24:34;;;;;;;;;;;;;;;;;;6214766;23;19994;-75
2022/12/29 04:27:00;;;;;;;;;;;;;;;;;;6241635;23;20016;-76
2022/12/29 04:29:46;;;;;;;;;;;;;;;;;;6214372;23;19918;-74
2022/12/29 04:32:28;;;;;;;;;;;;;;;;;;6214079;23;20006;-76
2022/12/29 04:34:54;;;;;;;;;;;;;;;;;;6188898;23;19918;-77
2022/12/29 04:37:20;;;;;;;;;;;;;;;;;;6212866;23;19912;-76
2022/12/29 04:39:46;;;;;;;;;;;;;;;;;;6240057;23;19911;-75
2022/12/29 04:42:11;;;;;;;;;;;;;;;;;;6188787;23;19911;-76
2022/12/29 04:44:37;;;;;;;;;;;;;;;;;;6189847;23;19912;-75
2022/12/29 04:47:09;;;;;;;;;;;;;;;;;;6215289;23;19965;-75
2022/12/29 04:49:51;;;;;;;;;;;;;;;;;;6215277;23;19962;-75
2022/12/29 04:52:35;;;;;;;;;;;;;;;;;;6219009;23;20072;-76
2022/12/29 04:55:01;;;;;;;;;;;;;;;;;;6215163;23;20487;-78
2022/12/29 04:57:28;;;;;;;;;;;;;;;;;;6241558;23;19915;-77
2022/12/29 04:59:56;;;;;;;;;;;;;;;;;;6215450;23;19958;-76
2022/12/29 05:02:21;;;;;;;;;;;;;;;;;;6214580;23;19911;-76
2022/12/29 05:04:49;;;;;;;;;;;;;;;;;;6215072;23;19926;-76
2022/12/29 05:07:15;;;;;;;;;;;;;;;;;;6215013;23;19912;-77
2022/12/29 05:09:41;;;;;;;;;;;;;;;;;;6215176;23;19934;-76
2022/12/29 05:12:06;;;;;;;;;;;;;;;;;;6241963;23;20183;-76
2022/12/29 05:14:34;;;;;;;;;;;;;;;;;;6189502;23;19999;-76
2022/12/29 05:16:59;;;;;;;;;;;;;;;;;;6214638;23;19951;-76
2022/12/29 05:19:25;;;;;;;;;;;;;;;;;;6214518;23;19985;-75
2022/12/29 05:21:52;;;;;;;;;;;;;;;;;;6215056;23;19912;-76
2022/12/29 05:24:18;;;;;;;;;;;;;;;;;;6241626;23;19922;-76
2022/12/29 05:26:43;;;;;;;;;;;;;;;;;;6241849;23;20280;-77
2022/12/29 05:29:35;;;;;;;;;;;;;;;;;;6194976;23;19912;-77
2022/12/29 05:32:01;;;;;;;;;;;;;;;;;;6189633;23;20348;-76
2022/12/29 05:34:27;;;;;;;;;;;;;;;;;;6214510;23;20018;-76
2022/12/29 05:36:53;;;;;;;;;;;;;;;;;;6241560;23;19950;-76
2022/12/29 05:39:18;;;;;;;;;;;;;;;;;;6189483;23;20481;-76
2022/12/29 05:41:48;;;;;;;;;;;;;;;;;;6214570;23;19919;-76
2022/12/29 05:44:14;;;;;;;;;;;;;;;;;;6241698;23;20412;-76
2022/12/29 05:47:03;;;;;;;;;;;;;;;;;;6215478;23;19927;-76
2022/12/29 05:49:40;;;;;;;;;;;;;;;;;;6215622;23;20301;-76
2022/12/29 05:52:19;;;;;;;;;;;;;;;;;;6215270;23;19941;-77
2022/12/29 05:54:44;;;;;;;;;;;;;;;;;;6215701;23;20002;-76
2022/12/29 05:57:13;;;;;;;;;;;;;;;;;;6214870;23;19947;-77
2022/12/29 05:59:40;;;;;;;;;;;;;;;;;;6165106;23;19915;-77
2022/12/29 06:02:06;;;;;;;;;;;;;;;;;;6214947;23;19934;-76
2022/12/29 06:04:32;;;;;;;;;;;;;;;;;;6215152;23;20310;-76
2022/12/29 06:06:57;;;;;;;;;;;;;;;;;;6215526;23;19943;-77
2022/12/29 06:09:43;;;;;;;;;;;;;;;;;;6218745;23;19911;-77
2022/12/29 06:12:09;;;;;;;;;;;;;;;;;;6214808;23;20395;-77
2022/12/29 06:14:37;;;;;;;;;;;;;;;;;;6214280;23;19919;-76
2022/12/29 06:17:03;;;;;;;;;;;;;;;;;;6214700;23;19998;-76
2022/12/29 06:19:29;;;;;;;;;;;;;;;;;;6214210;23;19931;-76
2022/12/29 06:21:55;;;;;;;;;;;;;;;;;;6214500;23;19911;-77
2022/12/29 06:24:20;;;;;;;;;;;;;;;;;;6189737;23;19919;-77
2022/12/29 06:26:46;;;;;;;;;;;;;;;;;;6189607;23;20345;-76
2022/12/29 06:29:16;;;;;;;;;;;;;;;;;;6214596;23;20326;-77
2022/12/29 06:31:43;;;;;;;;;;;;;;;;;;6240936;23;20319;-76
2022/12/29 06:34:09;;;;;;;;;;;;;;;;;;6214338;23;19911;-77
2022/12/29 06:36:35;;;;;;;;;;;;;;;;;;6213938;23;19912;-77
2022/12/29 06:39:01;;;;;;;;;;;;;;;;;;6219978;23;19915;-83
2022/12/29 06:41:27;;;;;;;;;;;;;;;;;;6254723;23;19919;-81
2022/12/29 06:44:08;;;;;;;;;;;;;;;;;;6231390;23;19911;-83
2022/12/29 06:46:48;;;;;;;;;;;;;;;;;;6254750;23;19926;-82
2022/12/29 06:49:14;;;;;;;;;;;;;;;;;;6236112;23;19912;-83
2022/12/29 06:51:40;;;;;;;;;;;;;;;;;;6260196;23;19959;-83
2022/12/29 06:54:05;;;;;;;;;;;;;;;;;;6232193;23;19915;-83
2022/12/29 06:56:31;;;;;;;;;;;;;;;;;;6257942;23;19923;-84
2022/12/29 06:58:59;;;;;;;;;;;;;;;;;;6257409;23;19982;-84
2022/12/29 07:01:25;;;;;;;;;;;;;;;;;;6232345;23;19912;-83
2022/12/29 07:03:51;;;;;;;;;;;;;;;;;;6204567;23;19922;-84
2022/12/29 07:06:17;;;;;;;;;;;;;;;;;;6232334;23;19920;-83
2022/12/29 07:08:43;;;;;;;;;;;;;;;;;;6268473;22;20272;-84
2022/12/29 07:11:08;;;;;;;;;;;;;;;;;;6232526;23;19911;-83
2022/12/29 07:13:34;;;;;;;;;;;;;;;;;;6235238;23;19919;-83
2022/12/29 07:16:00;;;;;;;;;;;;;;;;;;6262408;23;19911;-83
2022/12/29 07:18:26;;;;;;;;;;;;;;;;;;6224971;23;19970;-80
2022/12/29 07:20:54;;;;;;;;;;;;;;;;;;6224267;23;19918;-81
2022/12/29 07:23:19;;;;;;;;;;;;;;;;;;6245804;23;19939;-82
2022/12/29 07:25:46;;;;;;;;;;;;;;;;;;6202922;23;19919;-80
2022/12/29 07:28:12;;;;;;;;;;;;;;;;;;6226364;23;19912;-82
2022/12/29 07:30:41;;;;;;;;;;;;;;;;;;6222380;23;20431;-81
2022/12/29 07:33:06;;;;;;;;;;;;;;;;;;6247397;23;19979;-80
2022/12/29 07:35:32;;;;;;;;;;;;;;;;;;6252305;23;19959;-81
2022/12/29 07:37:57;;;;;;;;;;;;;;;;;;6266599;23;19912;-82
2022/12/29 07:40:23;;;;;;;;;;;;;;;;;;6263889;23;19911;-81
2022/12/29 07:42:49;;;;;;;;;;;;;;;;;;6234744;23;19911;-82
2022/12/29 07:45:15;;;;;;;;;;;;;;;;;;6215411;23;19903;-83
2022/12/29 07:47:52;;;;;;;;;;;;;;;;;;6258933;23;20365;-82
2022/12/29 07:50:18;;;;;;;;;;;;;;;;;;6250660;23;19918;-82
2022/12/29 07:52:44;;;;;;;;;;;;;;;;;;6250271;23;20009;-83
2022/12/29 07:55:10;;;;;;;;;;;;;;;;;;6255746;23;19946;-84
2022/12/29 07:57:38;;;;;;;;;;;;;;;;;;6179145;23;19911;-82
2022/12/29 08:00:04;;;;;;;;;;;;;;;;;;6225256;23;19965;-81
2022/12/29 08:02:37;;;;;;;;;;;;;;;;;;6253699;23;19919;-82
2022/12/29 08:05:02;;;;;;;;;;;;;;;;;;6250393;23;19919;-81
2022/12/29 08:07:28;;;;;;;;;;;;;;;;;;6248694;23;19918;-81
2022/12/29 08:09:54;;;;;;;;;;;;;;;;;;6230397;23;19991;-82
2022/12/29 08:12:20;;;;;;;;;;;;;;;;;;6222749;23;19911;-82
2022/12/29 08:14:46;;;;;;;;;;;;;;;;;;6248253;23;20016;-81
2022/12/29 08:17:11;;;;;;;;;;;;;;;;;;6219063;23;20242;-77
2022/12/29 08:19:37;;;;;;;;;;;;;;;;;;6241489;23;19940;-79
2022/12/29 08:22:03;;;;;;;;;;;;;;;;;;6217449;23;19940;-80
2022/12/29 08:24:28;;;;;;;;;;;;;;;;;;6264186;23;19899;-84
2022/12/29 08:26:54;;;;;;;;;;;;;;;;;;6268222;23;19966;-84
2022/12/29 08:29:21;;;;;;;;;;;;;;;;;;6255334;23;19981;-82
2022/12/29 08:31:46;;;;;;;;;;;;;;;;;;6246338;23;19919;-82
2022/12/29 08:34:12;;;;;;;;;;;;;;;;;;6252145;23;19912;-83
2022/12/29 08:36:38;;;;;;;;;;;;;;;;;;6231142;23;19918;-82
2022/12/29 08:39:04;;;;;;;;;;;;;;;;;;6245293;23;19916;-81
2022/12/29 08:41:29;;;;;;;;;;;;;;;;;;6243378;23;19908;-80
2022/12/29 08:43:55;;;;;;;;;;;;;;;;;;6245298;23;19918;-82
2022/12/29 08:46:20;;;;;;;;;;;;;;;;;;6180719;23;19923;-83
2022/12/29 08:48:47;;;;;;;;;;;;;;;;;;6227407;23;19919;-83
2022/12/29 08:51:13;;;;;;;;;;;;;;;;;;6254825;23;19911;-80
2022/12/29 08:53:38;;;;;;;;;;;;;;;;;;6244347;23;19912;-78
2022/12/29 08:56:04;;;;;;;;;;;;;;;;;;6241875;23;19908;-79
2022/12/29 08:58:30;;;;;;;;;;;;;;;;;;6215963;23;19934;-80
2022/12/29 09:00:56;;;;;;;;;;;;;;;;;;6217192;23;20272;-80
2022/12/29 09:03:21;;;;;;;;;;;;;;;;;;6216176;23;20364;-79
2022/12/29 09:05:47;;;;;;;;;;;;;;;;;;6242538;23;19919;-81
2022/12/29 09:08:13;;;;;;;;;;;;;;;;;;6244499;23;19914;-78
2022/12/29 09:10:38;;;;;;;;;;;;;;;;;;6245307;23;19911;-79
2022/12/29 09:13:04;;;;;;;;;;;;;;;;;;6244735;23;20078;-78
2022/12/29 09:15:30;;;;;;;;;;;;;;;;;;6244509;23;19912;-78
2022/12/29 09:17:55;;;;;;;;;;;;;;;;;;6242669;23;19940;-77
2022/12/29 09:20:21;;;;;;;;;;;;;;;;;;6244927;23;19943;-78
2022/12/29 09:22:47;;;;;;;;;;;;;;;;;;6250453;23;19912;-78
2022/12/29 09:25:13;;;;;;;;;;;;;;;;;;6251804;23;19939;-77
2022/12/29 09:27:38;;;;;;;;;;;;;;;;;;6224775;23;19931;-79
2022/12/29 09:30:05;;;;;;;;;;;;;;;;;;6252962;23;19912;-79
2022/12/29 09:32:31;;;;;;;;;;;;;;;;;;6202247;23;19915;-79
2022/12/29 09:34:57;;;;;;;;;;;;;;;;;;6229156;23;19958;-78
2022/12/29 09:37:22;;;;;;;;;;;;;;;;;;6255614;23;19955;-79
2022/12/29 09:39:48;;;;;;;;;;;;;;;;;;6252552;23;19912;-78
2022/12/29 09:42:13;;;;;;;;;;;;;;;;;;6226513;23;19911;-78
2022/12/29 09:44:39;;;;;;;;;;;;;;;;;;6250996;23;19919;-77
2022/12/29 09:47:05;;;;;;;;;;;;;;;;;;6250424;23;19911;-78
2022/12/29 09:49:30;;;;;;;;;;;;;;;;;;6249774;23;19912;-78
2022/12/29 09:51:56;;;;;;;;;;;;;;;;;;6252276;23;19918;-79
2022/12/29 09:54:22;;;;;;;;;;;;;;;;;;6225957;23;20007;-77
2022/12/29 09:56:47;;;;;;;;;;;;;;;;;;6252907;23;19938;-78
2022/12/29 09:59:13;;;;;;;;;;;;;;;;;;6249239;23;20312;-78
2022/12/29 10:01:39;;;;;;;;;;;;;;;;;;6220723;23;19918;-78
2022/12/29 10:04:05;;;;;;;;;;;;;;;;;;6225976;23;19919;-80
2022/12/29 10:06:31;;;;;;;;;;;;;;;;;;6246984;23;19942;-81
2022/12/29 10:08:57;;;;;;;;;;;;;;;;;;6219422;23;19912;-79
2022/12/29 10:11:22;;;;;;;;;;;;;;;;;;6243034;23;19918;-78
2022/12/29 10:13:48;;;;;;;;;;;;;;;;;;6244407;23;19932;-77
2022/12/29 10:16:13;;;;;;;;;;;;;;;;;;6193878;23;20375;-79
2022/12/29 10:18:39;;;;;;;;;;;;;;;;;;6247461;23;19919;-80
2022/12/29 10:21:05;;;;;;;;;;;;;;;;;;6226418;23;20552;-81
2022/12/29 10:23:30;;;;;;;;;;;;;;;;;;6249112;23;19919;-79
2022/12/29 10:25:56;;;;;;;;;;;;;;;;;;6247862;23;19999;-77
2022/12/29 10:28:22;;;;;;;;;;;;;;;;;;6245997;23;19986;-78
2022/12/29 10:30:47;;;;;;;;;;;;;;;;;;6245536;23;19912;-80
2022/12/29 10:33:13;;;;;;;;;;;;;;;;;;6250938;23;19912;-80
2022/12/29 10:35:40;;;;;;;;;;;;;;;;;;6246498;23;20222;-78
2022/12/29 10:38:05;;;;;;;;;;;;;;;;;;6246170;23;20023;-79
2022/12/29 10:40:31;;;;;;;;;;;;;;;;;;6169076;23;20260;-79
2022/12/29 10:42:57;;;;;;;;;;;;;;;;;;6220775;23;19919;-81
2022/12/29 10:45:23;;;;;;;;;;;;;;;;;;6221564;23;19965;-78
2022/12/29 10:47:48;;;;;;;;;;;;;;;;;;6221607;23;19919;-78
2022/12/29 10:50:14;;;;;;;;;;;;;;;;;;6219944;23;19946;-79
2022/12/29 10:52:40;;;;;;;;;;;;;;;;;;6246497;23;20368;-77
2022/12/29 10:57:44;;;;;;;;;;;;;;;;;;6233298;23;19923;-82
2022/12/29 11:00:10;;;;;;;;;;;;;;;;;;6231909;23;19912;-82
2022/12/29 11:02:36;;;;;;;;;;;;;;;;;;6227253;23;19991;-81
2022/12/29 11:05:04;;;;;;;;;;;;;;;;;;6226493;23;20335;-80
2022/12/29 11:07:30;;;;;;;;;;;;;;;;;;6200780;23;19969;-82
2022/12/29 11:09:56;;;;;;;;;;;;;;;;;;6220327;23;20292;-81
2022/12/29 11:12:21;;;;;;;;;;;;;;;;;;6234751;23;19912;-84
2022/12/29 11:14:47;;;;;;;;;;;;;;;;;;6182488;23;19916;-82
2022/12/29 11:17:13;;;;;;;;;;;;;;;;;;6232131;23;19923;-79
2022/12/29 11:19:38;;;;;;;;;;;;;;;;;;6219069;23;19912;-79
2022/12/29 11:22:04;;;;;;;;;;;;;;;;;;6219222;23;19926;-79
2022/12/29 11:24:29;;;;;;;;;;;;;;;;;;6194267;23;19916;-79
2022/12/29 11:26:58;;;;;;;;;;;;;;;;;;6220740;23;20003;-81
2022/12/29 11:29:24;;;;;;;;;;;;;;;;;;6221621;23;19896;-79
2022/12/29 11:31:49;;;;;;;;;;;;;;;;;;6194208;23;20405;-81
2022/12/29 11:34:15;;;;;;;;;;;;;;;;;;6221862;23;19920;-81
2022/12/29 11:36:41;;;;;;;;;;;;;;;;;;6193038;23;19934;-81
2022/12/29 11:39:07;;;;;;;;;;;;;;;;;;6221743;23;19920;-80
2022/12/29 11:41:33;;;;;;;;;;;;;;;;;;6164863;23;19916;-75
2022/12/29 11:43:58;;;;;;;;;;;;;;;;;;6217183;23;19912;-79
2022/12/29 11:46:24;;;;;;;;;;;;;;;;;;6197324;23;19926;-81
2022/12/29 11:48:50;;;;;;;;;;;;;;;;;;6228011;23;19912;-83
2022/12/29 11:51:15;;;;;;;;;;;;;;;;;;6235178;22;19951;-82
2022/12/29 11:53:41;;;;;;;;;;;;;;;;;;6233855;22;19916;-80
2022/12/29 11:56:07;;;;;;;;;;;;;;;;;;6235859;23;19899;-82
2022/12/29 11:58:32;;;;;;;;;;;;;;;;;;6233314;23;19916;-82
2022/12/29 12:00:58;;;;;;;;;;;;;;;;;;6209140;23;19939;-83
2022/12/29 12:03:24;;;;;;;;;;;;;;;;;;6232827;23;19935;-83
2022/12/29 12:05:52;;;;;;;;;;;;;;;;;;6227193;23;19927;-81
2022/12/29 12:08:18;;;;;;;;;;;;;;;;;;6223439;23;19916;-82
2022/12/29 12:10:44;;;;;;;;;;;;;;;;;;6229809;23;19939;-82
2022/12/29 12:13:10;;;;;;;;;;;;;;;;;;6183375;23;19896;-84
2022/12/29 12:15:36;;;;;;;;;;;;;;;;;;6240309;23;20309;-84
2022/12/29 12:18:02;;;;;;;;;;;;;;;;;;6190892;23;19915;-78
2022/12/29 12:20:28;;;;;;;;;;;;;;;;;;6215045;23;19919;-79
2022/12/29 12:22:54;;;;;;;;;;;;;;;;;;6215442;23;19911;-79
2022/12/29 12:25:20;;;;;;;;;;;;;;;;;;6222637;23;20261;-82
2022/12/29 12:27:46;;;;;;;;;;;;;;;;;;6222731;23;19911;-80
2022/12/29 12:30:11;;;;;;;;;;;;;;;;;;6219418;23;20308;-78
2022/12/29 12:32:41;;;;;;;;;;;;;;;;;;6189488;23;20002;-80
2022/12/29 12:35:06;;;;;;;;;;;;;;;;;;6219378;23;19912;-78
2022/12/29 12:37:32;;;;;;;;;;;;;;;;;;6218388;23;19919;-79
2022/12/29 12:39:58;;;;;;;;;;;;;;;;;;6221271;23;19916;-78
2022/12/29 12:42:23;;;;;;;;;;;;;;;;;;6218837;23;19957;-79
2022/12/29 12:44:49;;;;;;;;;;;;;;;;;;6220745;23;19911;-80
2022/12/29 12:47:15;;;;;;;;;;;;;;;;;;6218496;23;19922;-80
2022/12/29 12:49:40;;;;;;;;;;;;;;;;;;6219683;23;19912;-80
2022/12/29 12:52:06;;;;;;;;;;;;;;;;;;6217608;23;20411;-78
2022/12/29 12:54:32;;;;;;;;;;;;;;;;;;6190326;23;19912;-79
2022/12/29 12:56:57;;;;;;;;;;;;;;;;;;6212549;23;20522;-80
2022/12/29 12:59:23;;;;;;;;;;;;;;;;;;6214028;23;20013;-79
2022/12/29 13:01:49;;;;;;;;;;;;;;;;;;6212715;23;19911;-77
2022/12/29 13:04:14;;;;;;;;;;;;;;;;;;6211634;23;19974;-78
2022/12/29 13:06:40;;;;;;;;;;;;;;;;;;6160780;23;19927;-80
2022/12/29 13:09:06;;;;;;;;;;;;;;;;;;6214117;23;19918;-79
2022/12/29 13:11:31;;;;;;;;;;;;;;;;;;6213974;23;20412;-79
2022/12/29 13:13:57;;;;;;;;;;;;;;;;;;6212810;23;20007;-79
2022/12/29 13:16:23;;;;;;;;;;;;;;;;;;6214175;23;19942;-77
2022/12/29 13:18:48;;;;;;;;;;;;;;;;;;6221495;23;19912;-79
2022/12/29 13:21:14;;;;;;;;;;;;;;;;;;6215222;23;19912;-76
2022/12/29 13:23:40;;;;;;;;;;;;;;;;;;6185066;23;19994;-80
2022/12/29 13:26:05;;;;;;;;;;;;;;;;;;6185612;23;19974;-77
2022/12/29 13:28:31;;;;;;;;;;;;;;;;;;6223475;23;19912;-81
2022/12/29 13:30:57;;;;;;;;;;;;;;;;;;6220424;23;19916;-80
2022/12/29 13:33:22;;;;;;;;;;;;;;;;;;6219253;23;19966;-78
2022/12/29 13:35:48;;;;;;;;;;;;;;;;;;6228267;23;19923;-78
2022/12/29 13:38:14;;;;;;;;;;;;;;;;;;6232230;23;19912;-78
2022/12/29 13:40:39;;;;;;;;;;;;;;;;;;6229768;23;20371;-78
2022/12/29 13:43:05;;;;;;;;;;;;;;;;;;6227814;23;19923;-79
2022/12/29 13:45:31;;;;;;;;;;;;;;;;;;6198849;23;19916;-80
2022/12/29 13:47:56;;;;;;;;;;;;;;;;;;6227514;23;19912;-79
2022/12/29 13:50:22;;;;;;;;;;;;;;;;;;6225741;23;19932;-80
2022/12/29 13:52:48;;;;;;;;;;;;;;;;;;6223476;23;19973;-80
2022/12/29 13:55:14;;;;;;;;;;;;;;;;;;6236670;23;19912;-80
2022/12/29 13:57:40;;;;;;;;;;;;;;;;;;6214208;23;20171;-79
2022/12/29 14:00:06;;;;;;;;;;;;;;;;;;6240819;22;19927;-82
2022/12/29 14:02:37;;;;;;;;;;;;;;;;;;6240674;22;19939;-81
2022/12/29 14:05:03;;;;;;;;;;;;;;;;;;6241004;22;19904;-81
2022/12/29 14:07:28;;;;;;;;;;;;;;;;;;6241347;23;19942;-80
2022/12/29 14:09:54;;;;;;;;;;;;;;;;;;6240991;23;19910;-81
2022/12/29 14:12:20;;;;;;;;;;;;;;;;;;6213345;23;19940;-80
2022/12/29 14:14:45;;;;;;;;;;;;;;;;;;6213796;23;19911;-79
2022/12/29 14:17:11;;;;;;;;;;;;;;;;;;6241022;23;19985;-81
2022/12/29 14:19:38;;;;;;;;;;;;;;;;;;6241503;22;19943;-81
2022/12/29 14:22:03;;;;;;;;;;;;;;;;;;6239563;22;19916;-81
2022/12/29 14:24:29;;;;;;;;;;;;;;;;;;6202706;23;19923;-81
2022/12/29 14:26:55;;;;;;;;;;;;;;;;;;6196788;23;19920;-82
2022/12/29 14:29:20;;;;;;;;;;;;;;;;;;6222391;23;20351;-81
2022/12/29 14:31:46;;;;;;;;;;;;;;;;;;6196416;23;19918;-80
2022/12/29 14:34:12;;;;;;;;;;;;;;;;;;6225870;23;19934;-81
2022/12/29 14:36:37;;;;;;;;;;;;;;;;;;6220316;23;19920;-81
2022/12/29 14:39:03;;;;;;;;;;;;;;;;;;6218123;23;20174;-79
2022/12/29 14:41:29;;;;;;;;;;;;;;;;;;6220193;23;19912;-81
2022/12/29 14:43:54;;;;;;;;;;;;;;;;;;6194422;23;20003;-80
2022/12/29 14:46:20;;;;;;;;;;;;;;;;;;6222758;23;19920;-79
2022/12/29 14:48:46;;;;;;;;;;;;;;;;;;6222174;23;19911;-81
2022/12/29 14:51:12;;;;;;;;;;;;;;;;;;6196899;23;20338;-81
2022/12/29 14:53:37;;;;;;;;;;;;;;;;;;6223914;23;19916;-82
2022/12/29 14:56:03;;;;;;;;;;;;;;;;;;6225727;23;19919;-80
2022/12/29 14:58:28;;;;;;;;;;;;;;;;;;6226829;23;19916;-80
2022/12/29 15:00:54;;;;;;;;;;;;;;;;;;6229105;23;19939;-80
2022/12/29 15:03:20;;;;;;;;;;;;;;;;;;6232292;23;19912;-80
2022/12/29 15:05:46;;;;;;;;;;;;;;;;;;6203105;23;19966;-80
2022/12/29 15:08:12;;;;;;;;;;;;;;;;;;6202878;23;19915;-81
2022/12/29 15:10:37;;;;;;;;;;;;;;;;;;6229812;23;19915;-81
2022/12/29 15:13:04;;;;;;;;;;;;;;;;;;6234041;23;19911;-81
2022/12/29 15:15:29;;;;;;;;;;;;;;;;;;6207124;23;19924;-80
2022/12/29 15:17:55;;;;;;;;;;;;;;;;;;6181260;23;19987;-81
2022/12/29 15:20:21;;;;;;;;;;;;;;;;;;6231305;23;19912;-82
2022/12/29 15:22:46;;;;;;;;;;;;;;;;;;6233141;23;20379;-81
2022/12/29 15:25:12;;;;;;;;;;;;;;;;;;6233614;23;19922;-83
2022/12/29 15:27:40;;;;;;;;;;;;;;;;;;6240385;22;19967;-81
2022/12/29 15:30:09;;;;;;;;;;;;;;;;;;6241826;22;19939;-81
2022/12/29 15:32:35;;;;;;;;;;;;;;;;;;6216791;23;19902;-80
2022/12/29 15:35:01;;;;;;;;;;;;;;;;;;6242206;22;20199;-82
2022/12/29 15:37:27;;;;;;;;;;;;;;;;;;6242844;22;19920;-83
2022/12/29 15:39:52;;;;;;;;;;;;;;;;;;6238016;23;19955;-82
2022/12/29 15:42:18;;;;;;;;;;;;;;;;;;6217337;23;19939;-81
2022/12/29 15:44:44;;;;;;;;;;;;;;;;;;6242804;22;19927;-82
2022/12/29 15:47:09;;;;;;;;;;;;;;;;;;6242436;22;19946;-81
2022/12/29 15:49:35;;;;;;;;;;;;;;;;;;6190467;23;19907;-81
2022/12/29 15:52:02;;;;;;;;;;;;;;;;;;6200881;23;19912;-80
2022/12/29 15:54:28;;;;;;;;;;;;;;;;;;6219637;23;19922;-80
2022/12/29 15:56:53;;;;;;;;;;;;;;;;;;6216746;23;19926;-80
2022/12/29 15:59:19;;;;;;;;;;;;;;;;;;6219944;23;19912;-79
2022/12/29 16:01:45;;;;;;;;;;;;;;;;;;6234403;23;19938;-79
2022/12/29 16:04:10;;;;;;;;;;;;;;;;;;6215025;23;19908;-81
2022/12/29 16:06:36;;;;;;;;;;;;;;;;;;6221411;23;19920;-78
2022/12/29 16:09:02;;;;;;;;;;;;;;;;;;6211882;23;20439;-76
2022/12/29 16:11:28;;;;;;;;;;;;;;;;;;6220517;23;20430;-75
2022/12/29 16:13:54;;;;;;;;;;;;;;;;;;6216941;23;19912;-81
2022/12/29 16:16:19;;;;;;;;;;;;;;;;;;6224119;23;19928;-81
2022/12/29 16:18:45;;;;;;;;;;;;;;;;;;6227625;23;19952;-79
2022/12/29 16:21:11;;;;;;;;;;;;;;;;;;6214732;23;20315;-77
2022/12/29 16:23:36;;;;;;;;;;;;;;;;;;6214718;23;19908;-78
2022/12/29 16:26:03;;;;;;;;;;;;;;;;;;6185124;23;19926;-79
2022/12/29 16:28:29;;;;;;;;;;;;;;;;;;6212085;23;19920;-79
2022/12/29 16:30:55;;;;;;;;;;;;;;;;;;6229514;23;19966;-82
2022/12/29 16:33:21;;;;;;;;;;;;;;;;;;6236462;23;19912;-84
2022/12/29 16:35:46;;;;;;;;;;;;;;;;;;6239806;23;19896;-84
2022/12/29 16:38:13;;;;;;;;;;;;;;;;;;6238734;23;19943;-82
2022/12/29 16:40:39;;;;;;;;;;;;;;;;;;6211191;23;19948;-83
2022/12/29 16:43:05;;;;;;;;;;;;;;;;;;6235358;23;19911;-83
2022/12/29 16:45:31;;;;;;;;;;;;;;;;;;6233850;23;19980;-82
2022/12/29 16:47:56;;;;;;;;;;;;;;;;;;6234748;23;20349;-82
2022/12/29 16:50:22;;;;;;;;;;;;;;;;;;6235397;23;19934;-83
2022/12/29 16:52:48;;;;;;;;;;;;;;;;;;6209100;23;19923;-81
2022/12/29 16:55:13;;;;;;;;;;;;;;;;;;6237259;23;19912;-82
2022/12/29 16:57:39;;;;;;;;;;;;;;;;;;6241003;23;19923;-82
2022/12/29 17:00:06;;;;;;;;;;;;;;;;;;6238657;23;19912;-83
2022/12/29 17:02:31;;;;;;;;;;;;;;;;;;6238954;23;19912;-83
2022/12/29 17:04:57;;;;;;;;;;;;;;;;;;6238182;23;19979;-82
2022/12/29 17:07:23;;;;;;;;;;;;;;;;;;6239511;23;19912;-83
2022/12/29 17:09:49;;;;;;;;;;;;;;;;;;6237272;23;19915;-82
2022/12/29 17:12:16;;;;;;;;;;;;;;;;;;6215214;23;19912;-84
2022/12/29 17:14:42;;;;;;;;;;;;;;;;;;6240377;22;19927;-84
2022/12/29 17:17:07;;;;;;;;;;;;;;;;;;6238255;23;19927;-81
2022/12/29 17:19:33;;;;;;;;;;;;;;;;;;6186063;23;19908;-82